Time;durP1;ratioP1;P1;durP2;ratioP2;P2;SDS_P1;SDS_P2;PMS_P1;PMS_P2;Temp;Humidity;BMP_temperature;BMP_pressure;BME280_temperature;BME280_humidity;BME280_pressure;Samples;Min_cycle;Max_cycle;Signal;HPM_P1;HPM_P2
2023/01/09 00:01:48;;;;;;;1.52;0.88;;;;;;;;;;5001891;28;20042;-63
2023/01/09 00:04:15;;;;;;;3.33;1.27;;;;;;;;;;5008275;28;20060;-62
2023/01/09 00:06:52;;;;;;;2.42;0.80;;;;;;;;;;5007823;28;20057;-62
2023/01/09 00:09:20;;;;;;;4.00;0.80;;;;;;;;;;5006046;28;20057;-63
2023/01/09 00:11:47;;;;;;;5.73;1.00;;;;;;;;;;5004762;28;20060;-63
2023/01/09 00:14:14;;;;;;;2.47;0.90;;;;;;;;;;4998603;28;20494;-62
2023/01/09 00:16:40;;;;;;;1.50;0.70;;;;;;;;;;5006711;28;20103;-62
2023/01/09 00:19:06;;;;;;;2.30;0.70;;;;;;;;;;5001754;28;20046;-63
2023/01/09 00:21:33;;;;;;;2.88;0.75;;;;;;;;;;5010082;28;20049;-64
2023/01/09 00:23:59;;;;;;;2.55;0.50;;;;;;;;;;5001049;28;20058;-64
2023/01/09 00:26:25;;;;;;;2.50;0.80;;;;;;;;;;5001160;28;20184;-62
2023/01/09 00:28:53;;;;;;;5.47;0.88;;;;;;;;;;5004166;28;20046;-62
2023/01/09 00:31:19;;;;;;;2.58;0.85;;;;;;;;;;5001135;28;20566;-62
2023/01/09 00:33:59;;;;;;;1.67;0.60;;;;;;;;;;5008724;28;20042;-64
2023/01/09 00:36:25;;;;;;;4.25;0.95;;;;;;;;;;5002457;28;20053;-64
2023/01/09 00:38:52;;;;;;;2.35;0.68;;;;;;;;;;5008017;28;20045;-63
2023/01/09 00:41:21;;;;;;;0.98;0.60;;;;;;;;;;4996977;28;20049;-63
2023/01/09 00:43:50;;;;;;;1.98;0.50;;;;;;;;;;5007198;28;20378;-64
2023/01/09 00:46:18;;;;;;;1.75;0.65;;;;;;;;;;5009248;28;20067;-64
2023/01/09 00:48:46;;;;;;;1.50;0.67;;;;;;;;;;5003658;28;20050;-63
2023/01/09 00:51:12;;;;;;;3.03;0.60;;;;;;;;;;4989307;28;20331;-63
2023/01/09 00:53:40;;;;;;;2.50;0.60;;;;;;;;;;4995375;28;20050;-64
2023/01/09 00:56:07;;;;;;;3.03;0.88;;;;;;;;;;5002298;28;20944;-62
2023/01/09 00:58:34;;;;;;;1.55;0.80;;;;;;;;;;5000752;28;20056;-63
2023/01/09 01:01:00;;;;;;;1.48;0.50;;;;;;;;;;5008147;28;20489;-63
2023/01/09 01:03:27;;;;;;;0.57;0.50;;;;;;;;;;5005545;28;20711;-63
2023/01/09 01:08:39;;;;;;;2.95;1.00;;;;;;;;;;5003744;28;20509;-63
2023/01/09 01:11:08;;;;;;;1.13;0.50;;;;;;;;;;4988636;28;20046;-64
2023/01/09 01:13:36;;;;;;;1.73;0.50;;;;;;;;;;5004839;28;20054;-62
2023/01/09 01:16:03;;;;;;;0.60;0.60;;;;;;;;;;4999850;28;20399;-63
2023/01/09 01:18:29;;;;;;;2.30;0.80;;;;;;;;;;5006132;28;20054;-61
2023/01/09 01:20:55;;;;;;;3.00;0.68;;;;;;;;;;5007875;28;20041;-60
2023/01/09 01:23:22;;;;;;;1.58;0.70;;;;;;;;;;4994553;28;20054;-62
2023/01/09 01:25:48;;;;;;;2.47;0.82;;;;;;;;;;4999064;28;20119;-61
2023/01/09 01:28:14;;;;;;;0.95;0.70;;;;;;;;;;4999616;28;20065;-62
2023/01/09 01:30:41;;;;;;;1.05;0.80;;;;;;;;;;5003000;28;20513;-62
2023/01/09 01:33:08;;;;;;;3.88;1.00;;;;;;;;;;5008490;28;20855;-61
2023/01/09 01:35:34;;;;;;;1.50;0.82;;;;;;;;;;5009996;28;20046;-64
2023/01/09 01:38:01;;;;;;;2.13;0.93;;;;;;;;;;5004971;28;20049;-65
2023/01/09 01:40:28;;;;;;;2.33;1.05;;;;;;;;;;5005349;28;20042;-61
2023/01/09 01:42:55;;;;;;;1.80;0.80;;;;;;;;;;5008556;28;20417;-63
2023/01/09 01:45:23;;;;;;;4.05;1.40;;;;;;;;;;4987470;28;20053;-65
2023/01/09 01:47:57;;;;;;;2.75;1.15;;;;;;;;;;5008178;28;20517;-64
2023/01/09 01:50:42;;;;;;;2.45;1.10;;;;;;;;;;4998060;28;20054;-63
2023/01/09 01:53:41;;;;;;;1.63;1.25;;;;;;;;;;5003380;28;20564;-63
2023/01/09 01:56:19;;;;;;;2.45;1.10;;;;;;;;;;4952406;28;20069;-63
2023/01/09 01:58:51;;;;;;;4.20;1.17;;;;;;;;;;5007559;28;20053;-63
2023/01/09 02:01:18;;;;;;;7.55;1.60;;;;;;;;;;5016721;28;20073;-63
2023/01/09 02:03:44;;;;;;;3.85;1.20;;;;;;;;;;5006514;28;20056;-63
2023/01/09 02:06:12;;;;;;;2.78;1.35;;;;;;;;;;5011773;28;20136;-63
2023/01/09 02:08:38;;;;;;;6.15;1.52;;;;;;;;;;5011092;28;20049;-65
2023/01/09 02:11:04;;;;;;;2.22;1.30;;;;;;;;;;5010239;28;20053;-63
2023/01/09 02:13:32;;;;;;;2.65;1.40;;;;;;;;;;4987060;28;20050;-63
2023/01/09 02:16:04;;;;;;;1.90;0.98;;;;;;;;;;4990471;28;20112;-63
2023/01/09 02:18:39;;;;;;;3.60;1.08;;;;;;;;;;5002845;28;20050;-61
2023/01/09 02:21:13;;;;;;;8.00;1.05;;;;;;;;;;5005280;28;20042;-62
2023/01/09 02:23:52;;;;;;;2.65;1.30;;;;;;;;;;5016255;28;20402;-62
2023/01/09 02:26:18;;;;;;;;;;;;;;;;;;5011661;28;20482;-62
2023/01/09 02:28:59;;;;;;;4.28;1.23;;;;;;;;;;5015369;28;19929;-61
2023/01/09 02:31:25;;;;;;;4.93;1.40;;;;;;;;;;4999098;28;20473;-61
2023/01/09 02:34:10;;;;;;;3.22;1.33;;;;;;;;;;5002920;28;20053;-63
2023/01/09 02:36:42;;;;;;;3.15;0.90;;;;;;;;;;5011462;28;20042;-62
2023/01/09 02:39:08;;;;;;;1.65;1.20;;;;;;;;;;5014349;28;20054;-61
2023/01/09 02:41:44;;;;;;;4.47;1.00;;;;;;;;;;5010588;28;20093;-62
2023/01/09 02:44:26;;;;;;;1.40;0.90;;;;;;;;;;5005502;28;20454;-62
2023/01/09 02:47:06;;;;;;;2.40;1.25;;;;;;;;;;5001839;28;20045;-62
2023/01/09 02:49:34;;;;;;;3.53;0.98;;;;;;;;;;5008138;28;20412;-61
2023/01/09 02:52:06;;;;;;;1.10;0.90;;;;;;;;;;5020754;28;20479;-63
2023/01/09 02:54:41;;;;;;;1.95;1.10;;;;;;;;;;5008716;28;20060;-62
2023/01/09 02:57:10;;;;;;;3.15;1.30;;;;;;;;;;5015608;28;20046;-62
2023/01/09 03:00:00;;;;;;;6.07;1.73;;;;;;;;;;5011497;28;20111;-63
2023/01/09 03:02:33;;;;;;;4.68;1.48;;;;;;;;;;4986465;28;20085;-63
2023/01/09 03:05:05;;;;;;;3.90;1.55;;;;;;;;;;5011160;28;20045;-62
2023/01/09 03:07:34;;;;;;;3.25;1.30;;;;;;;;;;5023330;28;20493;-63
2023/01/09 03:10:14;;;;;;;2.50;1.20;;;;;;;;;;5018645;28;20149;-64
2023/01/09 03:12:41;;;;;;;4.63;1.65;;;;;;;;;;4999499;28;20042;-62
2023/01/09 03:15:11;;;;;;;3.85;1.30;;;;;;;;;;5009731;28;20134;-62
2023/01/09 03:17:39;;;;;;;3.28;1.33;;;;;;;;;;5008726;28;20050;-62
2023/01/09 03:20:08;;;;;;;4.63;1.70;;;;;;;;;;5013158;28;20054;-62
2023/01/09 03:22:34;;;;;;;5.82;1.40;;;;;;;;;;4991126;28;20053;-63
2023/01/09 03:25:01;;;;;;;4.82;1.58;;;;;;;;;;5011813;28;20060;-63
2023/01/09 03:27:27;;;;;;;3.22;1.42;;;;;;;;;;5003465;28;20422;-63
2023/01/09 03:29:55;;;;;;;6.57;1.60;;;;;;;;;;5011537;28;20038;-62
2023/01/09 03:32:21;;;;;;;2.88;1.50;;;;;;;;;;5012468;28;20049;-61
2023/01/09 03:34:48;;;;;;;5.22;1.48;;;;;;;;;;5004234;28;20045;-62
2023/01/09 03:37:14;;;;;;;2.53;1.23;;;;;;;;;;5024701;28;20111;-63
2023/01/09 03:39:42;;;;;;;5.57;1.65;;;;;;;;;;5007923;28;20045;-63
2023/01/09 03:42:08;;;;;;;6.68;1.52;;;;;;;;;;5020520;28;20108;-64
2023/01/09 03:44:34;;;;;;;7.70;1.50;;;;;;;;;;5015402;28;20057;-65
2023/01/09 03:47:00;;;;;;;3.00;1.17;;;;;;;;;;5007266;28;20065;-64
2023/01/09 03:49:27;;;;;;;3.13;1.30;;;;;;;;;;5013860;28;20473;-64
2023/01/09 03:51:53;;;;;;;4.65;1.23;;;;;;;;;;5004549;28;20045;-64
2023/01/09 03:54:19;;;;;;;4.70;1.20;;;;;;;;;;5007197;28;20403;-64
2023/01/09 03:56:46;;;;;;;3.38;1.40;;;;;;;;;;5010331;28;20104;-65
2023/01/09 03:59:12;;;;;;;8.25;1.83;;;;;;;;;;5010442;28;20046;-64
2023/01/09 04:01:38;;;;;;;2.97;1.48;;;;;;;;;;5010300;28;20125;-64
2023/01/09 04:04:05;;;;;;;2.63;1.20;;;;;;;;;;5006955;28;20138;-65
2023/01/09 04:06:31;;;;;;;4.55;1.38;;;;;;;;;;5021400;28;20080;-64
2023/01/09 04:08:58;;;;;;;4.40;1.30;;;;;;;;;;5004758;28;20041;-64
2023/01/09 04:11:24;;;;;;;2.25;0.95;;;;;;;;;;5021267;28;20112;-65
2023/01/09 04:13:50;;;;;;;4.53;1.50;;;;;;;;;;5008417;28;20053;-65
2023/01/09 04:16:17;;;;;;;4.32;1.30;;;;;;;;;;5012993;28;20057;-64
2023/01/09 04:18:43;;;;;;;5.53;1.35;;;;;;;;;;5008152;28;20049;-64
2023/01/09 04:21:10;;;;;;;3.42;1.15;;;;;;;;;;5003530;28;20683;-64
2023/01/09 04:23:36;;;;;;;4.88;1.38;;;;;;;;;;5007283;28;20053;-64
2023/01/09 04:26:02;;;;;;;4.65;1.58;;;;;;;;;;5012279;28;20045;-64
2023/01/09 04:28:29;;;;;;;7.53;1.60;;;;;;;;;;5004233;28;20495;-65
2023/01/09 04:30:55;;;;;;;5.38;1.70;;;;;;;;;;5008807;28;20481;-65
2023/01/09 04:33:21;;;;;;;8.48;1.48;;;;;;;;;;5020965;28;20061;-65
2023/01/09 04:35:48;;;;;;;5.68;2.03;;;;;;;;;;5014930;28;20038;-64
2023/01/09 04:38:14;;;;;;;7.38;2.65;;;;;;;;;;5009437;28;20045;-64
2023/01/09 04:40:40;;;;;;;6.55;1.83;;;;;;;;;;5011160;28;20045;-64
2023/01/09 04:43:07;;;;;;;5.75;1.55;;;;;;;;;;5003217;28;20050;-64
2023/01/09 04:45:33;;;;;;;3.83;1.73;;;;;;;;;;5012888;28;20050;-64
2023/01/09 04:47:59;;;;;;;3.97;2.05;;;;;;;;;;5000470;28;20617;-64
2023/01/09 04:50:26;;;;;;;7.10;2.15;;;;;;;;;;5004298;28;20108;-64
2023/01/09 04:52:52;;;;;;;6.05;2.00;;;;;;;;;;5012808;28;20445;-65
2023/01/09 04:55:18;;;;;;;6.32;1.70;;;;;;;;;;5008013;28;20108;-64
2023/01/09 04:57:45;;;;;;;6.63;2.10;;;;;;;;;;5009719;28;20129;-64
2023/01/09 05:00:11;;;;;;;5.55;1.98;;;;;;;;;;4999128;28;20060;-64
2023/01/09 05:02:37;;;;;;;4.07;1.73;;;;;;;;;;5007111;28;20107;-64
2023/01/09 05:05:04;;;;;;;5.70;1.77;;;;;;;;;;5024869;28;20169;-64
2023/01/09 05:07:31;;;;;;;4.85;1.80;;;;;;;;;;5014025;28;20045;-64
2023/01/09 05:09:57;;;;;;;2.90;1.45;;;;;;;;;;5015165;28;20053;-64
2023/01/09 05:12:23;;;;;;;7.07;2.10;;;;;;;;;;5011337;28;20069;-64
2023/01/09 05:14:49;;;;;;;5.03;1.60;;;;;;;;;;5006352;28;20042;-65
2023/01/09 05:17:16;;;;;;;3.60;1.70;;;;;;;;;;5002309;28;20176;-64
2023/01/09 05:19:44;;;;;;;5.18;1.50;;;;;;;;;;5007844;28;20046;-64
2023/01/09 05:22:11;;;;;;;5.88;1.92;;;;;;;;;;4997197;28;20099;-64
2023/01/09 05:24:37;;;;;;;2.75;1.30;;;;;;;;;;5010107;28;20057;-64
2023/01/09 05:27:03;;;;;;;4.28;1.20;;;;;;;;;;5014627;28;20049;-64
2023/01/09 05:29:30;;;;;;;5.75;1.55;;;;;;;;;;5001424;28;20054;-65
2023/01/09 05:31:56;;;;;;;7.47;2.13;;;;;;;;;;5009219;28;20492;-64
2023/01/09 05:34:22;;;;;;;4.53;1.40;;;;;;;;;;5003867;28;20056;-65
2023/01/09 05:36:49;;;;;;;5.07;1.50;;;;;;;;;;5012220;28;20048;-64
2023/01/09 05:39:15;;;;;;;2.33;1.30;;;;;;;;;;5017539;28;20104;-64
2023/01/09 05:41:41;;;;;;;4.25;1.60;;;;;;;;;;5015496;28;20045;-64
2023/01/09 05:44:08;;;;;;;3.88;1.40;;;;;;;;;;5013598;28;20045;-64
2023/01/09 05:46:34;;;;;;;4.88;1.33;;;;;;;;;;5009362;28;20461;-64
2023/01/09 05:49:00;;;;;;;4.63;1.40;;;;;;;;;;5020116;28;20050;-64
2023/01/09 05:51:27;;;;;;;3.33;1.05;;;;;;;;;;5009270;28;20548;-64
2023/01/09 05:53:53;;;;;;;3.50;1.30;;;;;;;;;;4993237;28;20061;-64
2023/01/09 05:56:19;;;;;;;7.47;1.88;;;;;;;;;;5015039;28;20160;-66
2023/01/09 05:58:45;;;;;;;2.95;1.17;;;;;;;;;;5003909;28;20795;-64
2023/01/09 06:01:12;;;;;;;5.97;1.45;;;;;;;;;;5008287;28;20480;-64
2023/01/09 06:03:38;;;;;;;7.15;1.38;;;;;;;;;;4999503;28;20042;-64
2023/01/09 06:06:04;;;;;;;4.55;1.45;;;;;;;;;;5013761;28;20046;-65
2023/01/09 06:08:31;;;;;;;5.85;1.58;;;;;;;;;;5001101;28;20053;-65
2023/01/09 06:10:57;;;;;;;3.60;1.70;;;;;;;;;;5019576;28;20058;-64
2023/01/09 06:13:23;;;;;;;5.18;1.50;;;;;;;;;;5007854;28;20510;-65
2023/01/09 06:15:49;;;;;;;5.75;1.40;;;;;;;;;;5017398;28;20473;-64
2023/01/09 06:18:16;;;;;;;6.47;1.33;;;;;;;;;;5010934;28;20073;-64
2023/01/09 06:20:43;;;;;;;5.13;1.05;;;;;;;;;;5007121;28;20046;-64
2023/01/09 06:23:09;;;;;;;3.85;1.27;;;;;;;;;;5015840;28;20051;-64
2023/01/09 06:25:38;;;;;;;5.70;1.52;;;;;;;;;;5008012;28;20049;-64
2023/01/09 06:28:05;;;;;;;6.22;1.80;;;;;;;;;;5006184;28;20494;-64
2023/01/09 06:30:31;;;;;;;9.75;1.45;;;;;;;;;;5013813;28;20054;-64
2023/01/09 06:32:57;;;;;;;5.50;1.33;;;;;;;;;;5012026;28;20049;-64
2023/01/09 06:35:24;;;;;;;14.48;1.83;;;;;;;;;;5024022;28;20050;-64
2023/01/09 06:37:50;;;;;;;7.50;1.65;;;;;;;;;;5018526;28;20037;-64
2023/01/09 06:40:17;;;;;;;5.75;1.45;;;;;;;;;;5016397;28;21206;-64
2023/01/09 06:42:44;;;;;;;6.78;1.50;;;;;;;;;;5009126;28;20498;-64
2023/01/09 06:45:10;;;;;;;7.78;1.58;;;;;;;;;;5017136;28;20088;-64
2023/01/09 06:47:37;;;;;;;5.35;1.30;;;;;;;;;;5011385;28;20562;-64
2023/01/09 06:50:03;;;;;;;6.43;1.02;;;;;;;;;;5007208;28;20525;-64
2023/01/09 06:52:30;;;;;;;6.35;1.38;;;;;;;;;;5010112;28;20077;-64
2023/01/09 06:54:56;;;;;;;3.97;1.13;;;;;;;;;;5005962;28;20060;-64
2023/01/09 06:57:22;;;;;;;8.02;1.15;;;;;;;;;;5015672;28;20072;-64
2023/01/09 06:59:48;;;;;;;9.80;1.83;;;;;;;;;;5005459;28;20054;-65
2023/01/09 07:02:16;;;;;;;7.20;1.50;;;;;;;;;;5010713;28;20046;-65
2023/01/09 07:04:43;;;;;;;6.65;1.40;;;;;;;;;;5014112;28;20049;-65
2023/01/09 07:07:10;;;;;;;7.47;1.40;;;;;;;;;;5006333;28;20092;-65
2023/01/09 07:09:36;;;;;;;7.10;1.27;;;;;;;;;;5012814;28;20482;-64
2023/01/09 07:12:02;;;;;;;5.53;1.13;;;;;;;;;;5009650;28;20091;-65
2023/01/09 07:14:29;;;;;;;5.80;1.25;;;;;;;;;;5016102;28;20046;-64
2023/01/09 07:16:55;;;;;;;10.77;1.55;;;;;;;;;;5011956;28;20045;-65
2023/01/09 07:19:21;;;;;;;8.02;1.30;;;;;;;;;;5012136;28;20045;-64
2023/01/09 07:21:48;;;;;;;7.05;1.20;;;;;;;;;;5006885;28;20484;-65
2023/01/09 07:24:14;;;;;;;6.47;1.48;;;;;;;;;;5001280;28;20091;-65
2023/01/09 07:26:40;;;;;;;6.03;1.88;;;;;;;;;;5021300;28;20045;-64
2023/01/09 07:29:08;;;;;;;5.93;1.60;;;;;;;;;;5006475;28;20096;-65
2023/01/09 07:31:35;;;;;;;10.20;1.40;;;;;;;;;;5012196;28;20321;-64
2023/01/09 07:34:01;;;;;;;9.05;1.60;;;;;;;;;;5006003;28;20077;-64
2023/01/09 07:36:27;;;;;;;13.75;2.03;;;;;;;;;;5015493;28;20051;-64
2023/01/09 07:38:53;;;;;;;9.30;1.60;;;;;;;;;;5021780;28;20041;-64
2023/01/09 07:41:20;;;;;;;7.97;1.73;;;;;;;;;;5006774;28;20061;-64
2023/01/09 07:43:46;;;;;;;9.65;1.60;;;;;;;;;;5009606;28;20060;-64
2023/01/09 07:46:12;;;;;;;9.40;1.73;;;;;;;;;;5002409;28;20049;-64
2023/01/09 07:48:39;;;;;;;5.00;1.70;;;;;;;;;;4995622;28;20542;-64
2023/01/09 07:51:05;;;;;;;5.13;1.17;;;;;;;;;;5007658;28;20123;-64
2023/01/09 07:53:31;;;;;;;5.97;1.50;;;;;;;;;;5013971;28;20061;-64
2023/01/09 07:55:58;;;;;;;11.73;2.05;;;;;;;;;;5011962;28;20532;-64
2023/01/09 07:58:24;;;;;;;9.43;1.67;;;;;;;;;;5013829;28;20058;-64
2023/01/09 08:00:50;;;;;;;7.88;1.80;;;;;;;;;;5017642;28;20052;-64
2023/01/09 08:03:17;;;;;;;6.75;1.60;;;;;;;;;;5001245;28;20673;-64
2023/01/09 08:05:44;;;;;;;7.78;1.77;;;;;;;;;;5016192;28;20064;-63
2023/01/09 08:08:13;;;;;;;7.38;2.00;;;;;;;;;;5010766;28;20500;-64
2023/01/09 08:10:39;;;;;;;6.55;1.52;;;;;;;;;;5011855;28;20057;-63
2023/01/09 08:13:06;;;;;;;5.82;1.52;;;;;;;;;;5017755;28;20053;-63
2023/01/09 08:15:32;;;;;;;8.75;2.22;;;;;;;;;;5001289;28;20053;-64
2023/01/09 08:17:58;;;;;;;8.40;2.15;;;;;;;;;;5016491;28;20111;-63
2023/01/09 08:20:26;;;;;;;9.50;2.47;;;;;;;;;;5013771;28;20045;-63
2023/01/09 08:22:53;;;;;;;10.13;1.80;;;;;;;;;;5014277;28;20052;-63
2023/01/09 08:25:20;;;;;;;5.93;1.60;;;;;;;;;;5007931;28;20087;-63
2023/01/09 08:27:46;;;;;;;5.70;2.10;;;;;;;;;;5017241;28;20060;-63
2023/01/09 08:30:13;;;;;;;10.00;2.60;;;;;;;;;;5006608;28;20118;-62
2023/01/09 08:32:40;;;;;;;8.32;2.65;;;;;;;;;;4997600;28;20057;-62
2023/01/09 08:35:06;;;;;;;6.20;1.88;;;;;;;;;;5009560;28;20042;-62
2023/01/09 08:37:33;;;;;;;8.88;2.38;;;;;;;;;;5015954;28;20046;-63
2023/01/09 08:39:59;;;;;;;7.35;2.55;;;;;;;;;;5023355;28;20037;-62
2023/01/09 08:47:56;;;;;;;5.43;2.70;;;;;;;;;;5011304;28;20049;-63
2023/01/09 08:50:22;;;;;;;4.22;2.35;;;;;;;;;;5004976;28;20061;-63
2023/01/09 08:52:48;;;;;;;5.82;2.88;;;;;;;;;;5011816;28;20457;-62
2023/01/09 08:55:14;;;;;;;5.97;2.50;;;;;;;;;;5005942;28;20053;-62
2023/01/09 08:57:48;;;;;;;6.60;2.78;;;;;;;;;;5011259;28;20046;-63
2023/01/09 09:00:15;;;;;;;5.25;2.97;;;;;;;;;;4994580;28;20048;-63
2023/01/09 09:02:41;;;;;;;6.35;2.20;;;;;;;;;;5017477;28;20047;-63
2023/01/09 09:05:08;;;;;;;6.25;2.60;;;;;;;;;;5006053;28;20045;-63
2023/01/09 09:07:34;;;;;;;6.57;2.20;;;;;;;;;;5017754;28;20464;-63
2023/01/09 09:10:01;;;;;;;5.47;2.22;;;;;;;;;;5016098;28;20052;-63
2023/01/09 09:12:27;;;;;;;7.10;2.78;;;;;;;;;;5003502;28;20049;-63
2023/01/09 09:15:11;;;;;;;6.20;2.90;;;;;;;;;;5012509;28;20064;-63
2023/01/09 09:17:41;;;;;;;6.97;2.50;;;;;;;;;;5004429;28;20045;-64
2023/01/09 09:20:08;;;;;;;5.38;2.50;;;;;;;;;;5008038;28;20061;-63
2023/01/09 09:22:34;;;;;;;5.95;2.35;;;;;;;;;;5012224;28;20100;-63
2023/01/09 09:25:03;;;;;;;4.05;2.30;;;;;;;;;;4983238;28;20098;-63
2023/01/09 09:27:30;;;;;;;4.30;2.33;;;;;;;;;;5009334;28;20135;-63
2023/01/09 09:29:56;;;;;;;4.45;2.60;;;;;;;;;;5005677;28;20578;-63
2023/01/09 09:32:22;;;;;;;5.32;2.53;;;;;;;;;;5006571;28;20057;-64
2023/01/09 09:34:49;;;;;;;4.10;2.80;;;;;;;;;;5002479;28;20056;-64
2023/01/09 09:37:15;;;;;;;6.13;2.60;;;;;;;;;;5013735;28;20386;-63
2023/01/09 09:39:41;;;;;;;9.73;2.97;;;;;;;;;;5012785;28;20046;-63
2023/01/09 09:45:20;;;;;;;5.45;2.42;;;;;;;;;;5011556;28;20045;-63
2023/01/09 09:47:50;;;;;;;4.63;1.92;;;;;;;;;;5015217;28;20045;-63
2023/01/09 09:50:23;;;;;;;3.30;2.10;;;;;;;;;;5012882;28;20049;-63
2023/01/09 09:52:58;;;;;;;3.60;1.90;;;;;;;;;;5001508;28;20069;-63
2023/01/09 09:55:32;;;;;;;5.45;2.58;;;;;;;;;;5007369;28;20053;-63
2023/01/09 09:58:01;;;;;;;6.22;2.38;;;;;;;;;;4990697;28;20076;-63
2023/01/09 10:00:27;;;;;;;;;;;;;;;;;;5005454;28;20053;-63
2023/01/09 10:03:02;;;;;;;4.68;2.08;;;;;;;;;;5007038;28;19944;-63
2023/01/09 10:05:41;;;;;;;5.38;2.22;;;;;;;;;;5010687;28;20277;-64
2023/01/09 10:08:07;;;;;;;;;;;;;;;;;;5003246;28;20049;-63
2023/01/09 10:10:51;;;;;;;5.60;2.15;;;;;;;;;;5008366;28;19920;-63
2023/01/09 10:16:09;;;;;;;6.65;2.70;;;;;;;;;;5005022;28;20046;-63
2023/01/09 10:18:41;;;;;;;6.45;3.00;;;;;;;;;;5022006;28;20111;-63
2023/01/09 10:21:14;;;;;;;8.57;4.03;;;;;;;;;;5002678;28;20107;-63
2023/01/09 10:23:58;;;;;;;5.72;2.97;;;;;;;;;;5011857;28;20038;-63
2023/01/09 10:26:31;;;;;;;9.63;3.90;;;;;;;;;;5004369;28;20050;-63
2023/01/09 10:29:20;;;;;;;10.10;4.32;;;;;;;;;;5016897;28;20064;-63
2023/01/09 10:32:05;;;;;;;7.75;4.28;;;;;;;;;;5000493;28;20556;-63
2023/01/09 10:34:56;;;;;;;6.68;3.88;;;;;;;;;;5008551;28;20516;-65
2023/01/09 10:37:27;;;;;;;6.40;3.45;;;;;;;;;;5004260;28;20045;-64
2023/01/09 10:39:54;;;;;;;6.47;3.80;;;;;;;;;;5037187;28;20055;-64
2023/01/09 10:42:30;;;;;;;4.63;2.45;;;;;;;;;;5016721;28;20056;-63
2023/01/09 10:45:14;;;;;;;7.32;3.08;;;;;;;;;;5013133;28;20046;-63
2023/01/09 10:47:42;;;;;;;5.28;2.80;;;;;;;;;;5020209;28;20048;-63
2023/01/09 10:50:17;;;;;;;5.63;3.13;;;;;;;;;;5001680;28;20184;-63
2023/01/09 10:52:45;;;;;;;7.63;2.72;;;;;;;;;;4995775;28;20053;-63
2023/01/09 10:55:18;;;;;;;7.40;3.03;;;;;;;;;;5001336;28;20049;-62
2023/01/09 10:57:45;;;;;;;6.95;3.33;;;;;;;;;;5009771;28;20580;-62
2023/01/09 11:00:16;;;;;;;14.10;3.07;;;;;;;;;;5003801;28;20048;-63
2023/01/09 11:02:43;;;;;;;8.35;3.10;;;;;;;;;;5017168;28;20046;-62
2023/01/09 11:05:14;;;;;;;7.80;3.47;;;;;;;;;;5012241;28;20072;-63
2023/01/09 11:07:42;;;;;;;6.65;3.35;;;;;;;;;;5010243;28;20528;-63
2023/01/09 11:10:10;;;;;;;5.55;2.80;;;;;;;;;;5001060;28;20094;-64
2023/01/09 11:12:37;;;;;;;;;;;;;;;;;;5015317;28;20042;-63
2023/01/09 11:15:17;;;;;;;6.35;2.88;;;;;;;;;;5010321;28;20400;-63
2023/01/09 11:17:43;;;;;;;7.32;2.50;;;;;;;;;;4982816;28;20096;-63
2023/01/09 11:20:15;;;;;;;5.18;2.75;;;;;;;;;;5010496;28;20045;-63
2023/01/09 11:22:43;;;;;;;7.07;2.22;;;;;;;;;;5010791;28;20184;-62
2023/01/09 11:25:11;;;;;;;5.38;2.20;;;;;;;;;;5014074;28;20060;-63
2023/01/09 11:27:38;;;;;;;5.47;2.10;;;;;;;;;;5009527;28;20050;-62
2023/01/09 11:30:26;;;;;;;6.18;2.60;;;;;;;;;;5002084;28;20052;-63
2023/01/09 11:32:54;;;;;;;8.07;3.00;;;;;;;;;;5009422;28;20045;-63
2023/01/09 11:35:26;;;;;;;8.50;3.25;;;;;;;;;;5001442;28;20061;-63
2023/01/09 11:37:57;;;;;;;7.22;2.80;;;;;;;;;;5007572;28;20542;-63
2023/01/09 11:40:23;;;;;;;4.70;2.55;;;;;;;;;;5003218;28;20261;-63
2023/01/09 11:43:03;;;;;;;7.93;2.67;;;;;;;;;;5010298;28;20580;-64
2023/01/09 11:45:31;;;;;;;5.30;2.30;;;;;;;;;;4997596;28;20050;-65
2023/01/09 11:47:57;;;;;;;4.55;2.22;;;;;;;;;;5003518;28;20748;-64
2023/01/09 11:50:28;;;;;;;7.82;2.65;;;;;;;;;;5013215;28;20054;-64
2023/01/09 11:53:14;;;;;;;3.10;1.95;;;;;;;;;;5005323;28;20216;-64
2023/01/09 11:55:40;;;;;;;5.03;1.83;;;;;;;;;;5007090;28;20679;-64
2023/01/09 11:58:16;;;;;;;5.55;2.00;;;;;;;;;;5001664;28;20045;-63
2023/01/09 12:00:45;;;;;;;8.02;1.98;;;;;;;;;;5006869;28;20465;-63
2023/01/09 12:03:11;;;;;;;5.07;1.90;;;;;;;;;;5001973;28;20046;-63
2023/01/09 12:05:50;;;;;;;9.93;2.22;;;;;;;;;;5006150;28;20049;-64
2023/01/09 12:08:36;;;;;;;4.82;1.80;;;;;;;;;;5002478;28;20046;-65
2023/01/09 12:11:18;;;;;;;10.18;2.20;;;;;;;;;;5003882;28;20060;-63
2023/01/09 12:13:44;;;;;;;10.90;2.35;;;;;;;;;;5001710;28;20108;-63
2023/01/09 12:16:18;;;;;;;10.02;2.05;;;;;;;;;;4989874;28;20652;-63
2023/01/09 12:18:54;;;;;;;5.68;1.90;;;;;;;;;;5008340;28;20061;-63
2023/01/09 12:21:26;;;;;;;8.57;1.52;;;;;;;;;;5003582;28;20041;-63
2023/01/09 12:24:07;;;;;;;10.65;2.00;;;;;;;;;;5008919;28;20042;-63
2023/01/09 12:26:47;;;;;;;5.97;2.20;;;;;;;;;;4994855;28;20045;-64
2023/01/09 12:29:22;;;;;;;7.93;2.65;;;;;;;;;;5003336;28;20049;-64
2023/01/09 12:32:08;;;;;;;10.25;2.65;;;;;;;;;;4999322;28;20095;-64
2023/01/09 12:34:58;;;;;;;9.35;2.42;;;;;;;;;;5005304;28;20132;-64
2023/01/09 12:37:43;;;;;;;7.15;2.20;;;;;;;;;;4998938;28;20080;-63
2023/01/09 12:40:15;;;;;;;11.10;2.58;;;;;;;;;;5003577;28;20049;-64
2023/01/09 12:43:03;;;;;;;9.63;2.45;;;;;;;;;;5002201;28;20062;-64
2023/01/09 12:45:39;;;;;;;7.53;2.50;;;;;;;;;;5003930;28;20077;-64
2023/01/09 12:48:24;;;;;;;11.13;2.65;;;;;;;;;;5008695;28;20502;-63
2023/01/09 12:51:02;;;;;;;10.48;2.65;;;;;;;;;;4999229;28;20038;-64
2023/01/09 12:53:30;;;;;;;10.73;2.53;;;;;;;;;;4999170;28;20042;-65
2023/01/09 12:56:04;;;;;;;11.07;2.72;;;;;;;;;;4994760;28;20056;-63
2023/01/09 12:58:45;;;;;;;6.18;2.22;;;;;;;;;;5003288;28;20668;-64
2023/01/09 13:01:15;;;;;;;9.38;2.60;;;;;;;;;;5001278;28;20504;-64
2023/01/09 13:03:52;;;;;;;10.07;2.70;;;;;;;;;;5004942;28;20054;-64
2023/01/09 13:06:21;;;;;;;6.75;2.50;;;;;;;;;;4999787;28;21002;-64
2023/01/09 13:08:51;;;;;;;10.15;2.53;;;;;;;;;;5001141;28;20881;-64
2023/01/09 13:11:22;;;;;;;10.40;2.63;;;;;;;;;;5005847;28;20054;-63
2023/01/09 13:14:00;;;;;;;8.85;2.25;;;;;;;;;;5000226;28;20049;-65
2023/01/09 13:16:30;;;;;;;8.07;2.28;;;;;;;;;;5003186;28;20486;-64
2023/01/09 13:19:11;;;;;;;9.52;1.92;;;;;;;;;;5003161;28;20076;-65
2023/01/09 13:21:38;;;;;;;4.95;1.95;;;;;;;;;;5002306;28;20072;-64
2023/01/09 13:24:17;;;;;;;6.97;1.60;;;;;;;;;;4996409;28;20458;-64
2023/01/09 13:26:49;;;;;;;6.22;1.85;;;;;;;;;;5009621;28;20069;-64
2023/01/09 13:29:20;;;;;;;9.27;2.40;;;;;;;;;;5014756;28;20065;-64
2023/01/09 13:31:55;;;;;;;6.50;1.98;;;;;;;;;;5011795;28;20161;-64
2023/01/09 13:34:23;;;;;;;8.00;1.65;;;;;;;;;;5008623;28;20056;-64
2023/01/09 13:36:51;;;;;;;7.80;2.22;;;;;;;;;;5002627;28;20136;-64
2023/01/09 13:39:25;;;;;;;7.65;1.80;;;;;;;;;;5008549;28;20054;-64
2023/01/09 13:44:38;;;;;;;9.40;1.90;;;;;;;;;;5013767;28;20049;-64
2023/01/09 13:47:13;;;;;;;4.82;1.63;;;;;;;;;;4999350;28;20069;-64
2023/01/09 13:49:42;;;;;;;7.20;1.95;;;;;;;;;;5002579;28;20050;-64
2023/01/09 13:52:27;;;;;;;6.43;2.00;;;;;;;;;;5001727;28;20065;-64
2023/01/09 13:54:54;;;;;;;7.90;2.30;;;;;;;;;;5007737;28;20296;-64
2023/01/09 13:57:31;;;;;;;11.90;2.33;;;;;;;;;;5015122;28;20057;-64
2023/01/09 14:00:06;;;;;;;8.77;2.50;;;;;;;;;;5008058;28;20525;-64
2023/01/09 14:02:32;;;;;;;9.63;2.33;;;;;;;;;;5008492;28;20497;-64
2023/01/09 14:04:59;;;;;;;7.07;2.25;;;;;;;;;;5000231;28;20081;-64
2023/01/09 14:07:26;;;;;;;9.55;2.17;;;;;;;;;;5011119;28;20072;-64
2023/01/09 14:10:04;;;;;;;6.82;1.85;;;;;;;;;;5000083;28;20530;-63
2023/01/09 14:12:37;;;;;;;5.00;1.77;;;;;;;;;;5011149;28;20049;-64
2023/01/09 14:15:03;;;;;;;10.40;1.70;;;;;;;;;;5010434;28;20050;-64
2023/01/09 14:17:32;;;;;;;7.30;1.63;;;;;;;;;;4991004;28;20062;-64
2023/01/09 14:20:00;;;;;;;4.78;1.35;;;;;;;;;;5001774;28;20046;-64
2023/01/09 14:22:31;;;;;;;3.17;1.17;;;;;;;;;;5002965;28;20058;-65
2023/01/09 14:25:19;;;;;;;4.60;1.27;;;;;;;;;;5018348;28;20556;-64
2023/01/09 14:27:48;;;;;;;4.18;1.30;;;;;;;;;;5003427;28;20045;-64
2023/01/09 14:30:26;;;;;;;3.83;1.10;;;;;;;;;;5011335;28;20053;-64
2023/01/09 14:33:12;;;;;;;4.10;1.20;;;;;;;;;;5007313;28;20053;-65
2023/01/09 14:35:46;;;;;;;5.35;1.35;;;;;;;;;;5010795;28;20061;-64
2023/01/09 14:38:22;;;;;;;3.88;1.40;;;;;;;;;;5020843;28;20177;-64
2023/01/09 14:40:52;;;;;;;3.90;0.98;;;;;;;;;;5015091;28;20525;-61
2023/01/09 14:43:40;;;;;;;4.72;1.00;;;;;;;;;;5003419;28;20053;-64
2023/01/09 14:46:11;;;;;;;3.80;1.05;;;;;;;;;;4994871;28;20038;-64
2023/01/09 14:48:41;;;;;;;3.75;1.20;;;;;;;;;;5015944;28;20061;-64
2023/01/09 14:51:13;;;;;;;7.38;1.10;;;;;;;;;;5001235;28;20449;-64
2023/01/09 14:53:41;;;;;;;6.53;1.40;;;;;;;;;;5009964;28;20629;-64
2023/01/09 14:56:22;;;;;;;3.58;1.10;;;;;;;;;;5015297;28;20060;-64
2023/01/09 14:59:01;;;;;;;5.97;1.50;;;;;;;;;;5007681;28;20073;-64
2023/01/09 15:01:31;;;;;;;5.18;1.33;;;;;;;;;;4999113;28;20046;-65
2023/01/09 15:03:59;;;;;;;5.38;1.35;;;;;;;;;;5012994;28;20052;-64
2023/01/09 15:06:26;;;;;;;6.38;1.52;;;;;;;;;;5014609;28;20077;-64
2023/01/09 15:08:55;;;;;;;4.78;1.70;;;;;;;;;;5006226;28;20470;-63
2023/01/09 15:11:21;;;;;;;5.63;1.40;;;;;;;;;;5007623;28;20057;-64
2023/01/09 15:13:49;;;;;;;7.47;1.33;;;;;;;;;;4990055;28;20494;-64
2023/01/09 15:16:19;;;;;;;9.02;1.85;;;;;;;;;;5000690;28;20050;-64